Kansai — JD3272 — position and weather

sailwx.info

Track history (hours):
 
Tides and Currents Weather Stations Pressure Air Temp Water Temp Dewpoint Dewpoint Depression Visibility Wind Speed Wind Dir Waves Ship Positions

Kansai

Last reported at 2016-May-24 18:18 UTC. Time now 2016-May-25 20:48 UTC.
Position N 34°41' E 134°50'.

Length 73 m; draft 4.2 m.

Type: Cargo ship. MMSI: 431003134.

Date/timePositionNaut miles runAvg speedWind from/ knotsBaromVisibWave heightAir tempDewpointWater temp
2016-May-24 18:18N 34°41' E 134°50'6 8.3
2016-May-24 17:33N 34°37' E 134°56'9 8.6
2016-May-24 16:33N 34°34' E 135°06'1211.2
2016-May-24 15:27N 34°22' E 135°01'205 8.2
2016-May-23 14:28N 34°45' E 139°09'910.3
2016-May-23 13:33N 34°51' E 139°18'10 9.7
2016-May-23 12:33N 34°57' E 139°27'1010.1
2016-May-23 11:34N 35°03' E 139°37'1010.3
2016-May-23 10:33N 35°11' E 139°45'10 9.9
2016-May-23 09:34N 35°21' E 139°42'10 9.6
2016-May-23 08:33N 35°28' E 139°49'1010.0
2016-May-23 07:33N 35°36' E 139°57'5 4.6
2016-May-23 06:33N 35°41' E 139°58'0 0.0
2016-May-23 05:33N 35°41' E 139°58'0 0.0
2016-May-23 04:33N 35°41' E 139°58'0 0.0
2016-May-23 03:33N 35°41' E 139°58'0 0.0
2016-May-23 02:33N 35°41' E 139°58'0 0.0
2016-May-23 01:33N 35°41' E 139°58'0 0.0
2016-May-23 00:33N 35°41' E 139°58'0 0.0
2016-May-22 23:33N 35°41' E 139°58'0 0.0
2016-May-22 22:34N 35°41' E 139°58'0 0.0
2016-May-22 21:33N 35°41' E 139°58'0 0.0
2016-May-22 20:33N 35°41' E 139°58'0 0.0
2016-May-22 19:33N 35°41' E 139°58'0 0.0
2016-May-22 18:33N 35°41' E 139°58'0 0.0
2016-May-22 17:33N 35°41' E 139°58'0 0.0
2016-May-22 16:33N 35°41' E 139°58'0 0.0
2016-May-22 15:33N 35°41' E 139°58'0 0.0
2016-May-22 14:33N 35°41' E 139°58'0 0.0
2016-May-22 13:33N 35°41' E 139°58'0 0.0
2016-May-22 12:33N 35°41' E 139°58'0 0.0
2016-May-22 11:33N 35°41' E 139°58'0 0.0
2016-May-22 10:33N 35°41' E 139°58'0 0.0
2016-May-22 09:33N 35°41' E 139°58'0 0.0
2016-May-22 08:33N 35°41' E 139°58'0 0.0
2016-May-22 07:33N 35°41' E 139°58'0 0.0
2016-May-22 06:33N 35°41' E 139°58'0 0.0
2016-May-22 05:34N 35°41' E 139°58'0 0.0
2016-May-22 04:33N 35°41' E 139°58'0 0.0
2016-May-22 03:34N 35°41' E 139°58'0 0.0
2016-May-22 02:34N 35°41' E 139°58'0 0.0
2016-May-22 01:33N 35°41' E 139°58'0 0.0
2016-May-22 00:33N 35°41' E 139°58'0 0.0
2016-May-21 23:33N 35°41' E 139°58'0 0.0
2016-May-21 22:33N 35°41' E 139°58'0 0.0
2016-May-21 21:33N 35°41' E 139°58'6 5.5
2016-May-21 20:33N 35°35' E 139°56'1010.2
2016-May-21 19:33N 35°27' E 139°49'10 9.6
2016-May-21 18:33N 35°18' E 139°45'10 9.7
2016-May-21 17:33N 35°08' E 139°46'245 8.7
2016-May-20 13:21N 34°02' E 135°00'910.6
2016-May-20 12:32N 34°11' E 134°59'9 8.7
2016-May-20 11:31N 34°20' E 134°59'9 9.0
2016-May-20 10:33N 34°28' E 135°01'8 7.9
2016-May-20 09:33N 34°36' E 135°03'2 0.1
2016-May-19 04:24N 34°37' E 135°01'6 7.5
2016-May-19 03:33N 34°32' E 135°04'1211.0
2016-May-19 02:30N 34°20' E 135°00'7 0.1
2016-May-17 00:32N 34°14' E 134°58'1111.4
2016-May-16 23:33N 34°25' E 135°00'1110.6
2016-May-16 22:33N 34°35' E 135°03'10 8.6
2016-May-16 21:26N 34°38' E 134°52'3 0.1
2016-May-15 14:18N 34°40' E 134°49'7 9.7
2016-May-15 13:33N 34°38' E 134°57'9 8.3
2016-May-15 12:32N 34°32' E 135°05'  
Track history (hours):
 
Tides and Currents Weather Stations Pressure Air Temp Water Temp Dewpoint Dewpoint Depression Visibility Wind Speed Wind Dir Waves Ship Positions

Kansai

Last reported at 2016-May-24 18:18 UTC. Time now 2016-May-25 20:48 UTC.
Position N 34°41' E 134°50'.

Length 73 m; draft 4.2 m.

Type: Cargo ship. MMSI: 431003134.

Date/timePositionNaut miles runAvg speedWind from/ knotsBaromVisibWave heightAir tempDewpointWater temp
2016-May-24 18:18N 34°41' E 134°50'6 8.3
2016-May-24 17:33N 34°37' E 134°56'9 8.6
2016-May-24 16:33N 34°34' E 135°06'1211.2
2016-May-24 15:27N 34°22' E 135°01'205 8.2
2016-May-23 14:28N 34°45' E 139°09'910.3
2016-May-23 13:33N 34°51' E 139°18'10 9.7
2016-May-23 12:33N 34°57' E 139°27'1010.1
2016-May-23 11:34N 35°03' E 139°37'1010.3
2016-May-23 10:33N 35°11' E 139°45'10 9.9
2016-May-23 09:34N 35°21' E 139°42'10 9.6
2016-May-23 08:33N 35°28' E 139°49'1010.0
2016-May-23 07:33N 35°36' E 139°57'5 4.6
2016-May-23 06:33N 35°41' E 139°58'0 0.0
2016-May-23 05:33N 35°41' E 139°58'0 0.0
2016-May-23 04:33N 35°41' E 139°58'0 0.0
2016-May-23 03:33N 35°41' E 139°58'0 0.0
2016-May-23 02:33N 35°41' E 139°58'0 0.0
2016-May-23 01:33N 35°41' E 139°58'0 0.0
2016-May-23 00:33N 35°41' E 139°58'0 0.0
2016-May-22 23:33N 35°41' E 139°58'0 0.0
2016-May-22 22:34N 35°41' E 139°58'0 0.0
2016-May-22 21:33N 35°41' E 139°58'0 0.0
2016-May-22 20:33N 35°41' E 139°58'0 0.0
2016-May-22 19:33N 35°41' E 139°58'0 0.0
2016-May-22 18:33N 35°41' E 139°58'0 0.0
2016-May-22 17:33N 35°41' E 139°58'0 0.0
2016-May-22 16:33N 35°41' E 139°58'0 0.0
2016-May-22 15:33N 35°41' E 139°58'0 0.0
2016-May-22 14:33N 35°41' E 139°58'0 0.0
2016-May-22 13:33N 35°41' E 139°58'0 0.0
2016-May-22 12:33N 35°41' E 139°58'0 0.0
2016-May-22 11:33N 35°41' E 139°58'0 0.0
2016-May-22 10:33N 35°41' E 139°58'0 0.0
2016-May-22 09:33N 35°41' E 139°58'0 0.0
2016-May-22 08:33N 35°41' E 139°58'0 0.0
2016-May-22 07:33N 35°41' E 139°58'0 0.0
2016-May-22 06:33N 35°41' E 139°58'0 0.0
2016-May-22 05:34N 35°41' E 139°58'0 0.0
2016-May-22 04:33N 35°41' E 139°58'0 0.0
2016-May-22 03:34N 35°41' E 139°58'0 0.0
2016-May-22 02:34N 35°41' E 139°58'0 0.0
2016-May-22 01:33N 35°41' E 139°58'0 0.0
2016-May-22 00:33N 35°41' E 139°58'0 0.0
2016-May-21 23:33N 35°41' E 139°58'0 0.0
2016-May-21 22:33N 35°41' E 139°58'0 0.0
2016-May-21 21:33N 35°41' E 139°58'6 5.5
2016-May-21 20:33N 35°35' E 139°56'1010.2
2016-May-21 19:33N 35°27' E 139°49'10 9.6
2016-May-21 18:33N 35°18' E 139°45'10 9.7
2016-May-21 17:33N 35°08' E 139°46'245 8.7
2016-May-20 13:21N 34°02' E 135°00'910.6
2016-May-20 12:32N 34°11' E 134°59'9 8.7
2016-May-20 11:31N 34°20' E 134°59'9 9.0
2016-May-20 10:33N 34°28' E 135°01'8 7.9
2016-May-20 09:33N 34°36' E 135°03'2 0.1
2016-May-19 04:24N 34°37' E 135°01'6 7.5
2016-May-19 03:33N 34°32' E 135°04'1211.0
2016-May-19 02:30N 34°20' E 135°00'7 0.1
2016-May-17 00:32N 34°14' E 134°58'1111.4
2016-May-16 23:33N 34°25' E 135°00'1110.6
2016-May-16 22:33N 34°35' E 135°03'10 8.6
2016-May-16 21:26N 34°38' E 134°52'3 0.1
2016-May-15 14:18N 34°40' E 134°49'7 9.7
2016-May-15 13:33N 34°38' E 134°57'9 8.3
2016-May-15 12:32N 34°32' E 135°05'  

Dump ship's entire track history